sensor_id;sensor_type;location;lat;lon;timestamp;temperature;humidity
46676;DHT22;32412;51.478;5.694;2022-08-19T00:00:35;18.10;99.90
46676;DHT22;32412;51.478;5.694;2022-08-19T00:03:01;18.10;99.90
46676;DHT22;32412;51.478;5.694;2022-08-19T00:05:27;17.90;99.90
46676;DHT22;32412;51.478;5.694;2022-08-19T00:07:53;17.80;99.90
46676;DHT22;32412;51.478;5.694;2022-08-19T00:10:20;17.70;99.90
46676;DHT22;32412;51.478;5.694;2022-08-19T00:12:46;17.70;99.90
46676;DHT22;32412;51.478;5.694;2022-08-19T00:15:14;17.70;99.90
46676;DHT22;32412;51.478;5.694;2022-08-19T00:17:42;17.70;99.90
46676;DHT22;32412;51.478;5.694;2022-08-19T00:20:11;17.70;99.90
46676;DHT22;32412;51.478;5.694;2022-08-19T00:22:40;17.70;99.90
46676;DHT22;32412;51.478;5.694;2022-08-19T00:25:07;17.70;99.90
46676;DHT22;32412;51.478;5.694;2022-08-19T00:27:34;17.70;99.90
46676;DHT22;32412;51.478;5.694;2022-08-19T00:29:59;17.70;99.90
46676;DHT22;32412;51.478;5.694;2022-08-19T00:32:25;17.70;99.90
46676;DHT22;32412;51.478;5.694;2022-08-19T00:34:52;17.70;99.90
46676;DHT22;32412;51.478;5.694;2022-08-19T00:37:23;17.70;99.90
46676;DHT22;32412;51.478;5.694;2022-08-19T00:39:51;17.50;99.90
46676;DHT22;32412;51.478;5.694;2022-08-19T00:42:18;17.50;99.90
46676;DHT22;32412;51.478;5.694;2022-08-19T00:44:45;17.40;99.90
46676;DHT22;32412;51.478;5.694;2022-08-19T00:47:12;17.30;99.90
46676;DHT22;32412;51.478;5.694;2022-08-19T00:49:45;17.30;99.90
46676;DHT22;32412;51.478;5.694;2022-08-19T00:52:23;17.30;99.90
46676;DHT22;32412;51.478;5.694;2022-08-19T00:54:49;17.30;99.90
46676;DHT22;32412;51.478;5.694;2022-08-19T00:57:19;17.30;99.90
46676;DHT22;32412;51.478;5.694;2022-08-19T00:59:48;17.30;99.90
46676;DHT22;32412;51.478;5.694;2022-08-19T01:02:17;17.30;99.90
46676;DHT22;32412;51.478;5.694;2022-08-19T01:04:43;17.40;99.90
46676;DHT22;32412;51.478;5.694;2022-08-19T01:07:09;17.40;99.90
46676;DHT22;32412;51.478;5.694;2022-08-19T01:09:35;17.50;99.90
46676;DHT22;32412;51.478;5.694;2022-08-19T01:12:02;17.50;99.90
46676;DHT22;32412;51.478;5.694;2022-08-19T01:14:28;17.40;99.90
46676;DHT22;32412;51.478;5.694;2022-08-19T01:16:55;17.50;99.90
46676;DHT22;32412;51.478;5.694;2022-08-19T01:19:28;17.50;99.90
46676;DHT22;32412;51.478;5.694;2022-08-19T01:22:11;17.40;99.90
46676;DHT22;32412;51.478;5.694;2022-08-19T01:24:41;17.50;99.90
46676;DHT22;32412;51.478;5.694;2022-08-19T01:27:07;17.40;99.90
46676;DHT22;32412;51.478;5.694;2022-08-19T01:29:38;17.40;99.90
46676;DHT22;32412;51.478;5.694;2022-08-19T01:32:04;17.40;99.90
46676;DHT22;32412;51.478;5.694;2022-08-19T01:34:30;17.40;99.90
46676;DHT22;32412;51.478;5.694;2022-08-19T01:36:56;17.40;99.90
46676;DHT22;32412;51.478;5.694;2022-08-19T01:39:24;17.40;99.90
46676;DHT22;32412;51.478;5.694;2022-08-19T01:41:50;17.30;99.90
46676;DHT22;32412;51.478;5.694;2022-08-19T01:44:20;17.30;99.90
46676;DHT22;32412;51.478;5.694;2022-08-19T01:46:49;17.20;99.90
46676;DHT22;32412;51.478;5.694;2022-08-19T01:49:18;17.20;99.90
46676;DHT22;32412;51.478;5.694;2022-08-19T01:51:44;17.20;99.90
46676;DHT22;32412;51.478;5.694;2022-08-19T01:54:12;17.20;99.90
46676;DHT22;32412;51.478;5.694;2022-08-19T01:56:39;17.20;99.90
46676;DHT22;32412;51.478;5.694;2022-08-19T01:59:16;17.20;99.90
46676;DHT22;32412;51.478;5.694;2022-08-19T02:01:41;17.20;99.90
46676;DHT22;32412;51.478;5.694;2022-08-19T02:04:08;17.20;99.90
46676;DHT22;32412;51.478;5.694;2022-08-19T02:06:34;17.20;99.90
46676;DHT22;32412;51.478;5.694;2022-08-19T02:09:00;17.20;99.90
46676;DHT22;32412;51.478;5.694;2022-08-19T02:11:32;17.20;99.90
46676;DHT22;32412;51.478;5.694;2022-08-19T02:14:01;17.10;99.90
46676;DHT22;32412;51.478;5.694;2022-08-19T02:16:27;17.10;99.90
46676;DHT22;32412;51.478;5.694;2022-08-19T02:18:53;17.10;99.90
46676;DHT22;32412;51.478;5.694;2022-08-19T02:21:22;17.10;99.90
46676;DHT22;32412;51.478;5.694;2022-08-19T02:23:48;17.00;99.90
46676;DHT22;32412;51.478;5.694;2022-08-19T02:26:14;17.00;99.90
46676;DHT22;32412;51.478;5.694;2022-08-19T02:28:41;17.00;99.90
46676;DHT22;32412;51.478;5.694;2022-08-19T02:31:12;17.00;99.90
46676;DHT22;32412;51.478;5.694;2022-08-19T02:33:38;17.00;99.90
46676;DHT22;32412;51.478;5.694;2022-08-19T02:36:06;16.90;99.90
46676;DHT22;32412;51.478;5.694;2022-08-19T02:38:31;16.90;99.90
46676;DHT22;32412;51.478;5.694;2022-08-19T02:41:03;16.90;99.90
46676;DHT22;32412;51.478;5.694;2022-08-19T02:43:31;16.90;99.90
46676;DHT22;32412;51.478;5.694;2022-08-19T02:45:57;16.90;99.90
46676;DHT22;32412;51.478;5.694;2022-08-19T02:48:25;16.90;99.90
46676;DHT22;32412;51.478;5.694;2022-08-19T02:50:52;16.90;99.90
46676;DHT22;32412;51.478;5.694;2022-08-19T02:53:21;16.80;99.90
46676;DHT22;32412;51.478;5.694;2022-08-19T02:55:48;16.80;99.90
46676;DHT22;32412;51.478;5.694;2022-08-19T02:58:15;16.80;99.90
46676;DHT22;32412;51.478;5.694;2022-08-19T03:00:45;16.70;99.90
46676;DHT22;32412;51.478;5.694;2022-08-19T03:03:12;16.70;99.90
46676;DHT22;32412;51.478;5.694;2022-08-19T03:05:38;16.60;99.90
46676;DHT22;32412;51.478;5.694;2022-08-19T03:08:04;16.50;99.90
46676;DHT22;32412;51.478;5.694;2022-08-19T03:10:31;16.50;99.90
46676;DHT22;32412;51.478;5.694;2022-08-19T03:12:57;16.40;99.90
46676;DHT22;32412;51.478;5.694;2022-08-19T03:15:23;16.40;99.90
46676;DHT22;32412;51.478;5.694;2022-08-19T03:17:49;16.30;99.90
46676;DHT22;32412;51.478;5.694;2022-08-19T03:20:15;16.40;99.90
46676;DHT22;32412;51.478;5.694;2022-08-19T03:22:40;16.30;99.90
46676;DHT22;32412;51.478;5.694;2022-08-19T03:25:06;16.40;99.90
46676;DHT22;32412;51.478;5.694;2022-08-19T03:27:32;16.30;99.90
46676;DHT22;32412;51.478;5.694;2022-08-19T03:29:57;16.40;99.90
46676;DHT22;32412;51.478;5.694;2022-08-19T03:32:23;16.40;99.90
46676;DHT22;32412;51.478;5.694;2022-08-19T03:34:49;16.30;99.90
46676;DHT22;32412;51.478;5.694;2022-08-19T03:37:16;16.40;99.90
46676;DHT22;32412;51.478;5.694;2022-08-19T03:39:42;16.40;99.90
46676;DHT22;32412;51.478;5.694;2022-08-19T03:42:08;16.40;99.90
46676;DHT22;32412;51.478;5.694;2022-08-19T03:44:34;16.40;99.90
46676;DHT22;32412;51.478;5.694;2022-08-19T03:47:02;16.40;99.90
46676;DHT22;32412;51.478;5.694;2022-08-19T03:49:31;16.40;99.90
46676;DHT22;32412;51.478;5.694;2022-08-19T03:51:58;16.30;99.90
46676;DHT22;32412;51.478;5.694;2022-08-19T03:54:26;16.30;99.90
46676;DHT22;32412;51.478;5.694;2022-08-19T03:56:53;16.30;99.90
46676;DHT22;32412;51.478;5.694;2022-08-19T03:59:32;16.30;99.90
46676;DHT22;32412;51.478;5.694;2022-08-19T04:01:59;16.40;99.90
46676;DHT22;32412;51.478;5.694;2022-08-19T04:04:26;16.30;99.90
46676;DHT22;32412;51.478;5.694;2022-08-19T04:06:52;16.30;99.90
46676;DHT22;32412;51.478;5.694;2022-08-19T04:09:19;16.30;99.90
46676;DHT22;32412;51.478;5.694;2022-08-19T04:11:50;16.30;99.90
46676;DHT22;32412;51.478;5.694;2022-08-19T04:14:21;16.30;99.90
46676;DHT22;32412;51.478;5.694;2022-08-19T04:16:48;16.30;99.90
46676;DHT22;32412;51.478;5.694;2022-08-19T04:19:15;16.20;99.90
46676;DHT22;32412;51.478;5.694;2022-08-19T04:21:44;16.20;99.90
46676;DHT22;32412;51.478;5.694;2022-08-19T04:24:11;16.20;99.90
46676;DHT22;32412;51.478;5.694;2022-08-19T04:26:37;16.10;99.90
46676;DHT22;32412;51.478;5.694;2022-08-19T04:29:12;16.10;99.90
46676;DHT22;32412;51.478;5.694;2022-08-19T04:31:39;16.00;99.90
46676;DHT22;32412;51.478;5.694;2022-08-19T04:34:07;16.00;99.90
46676;DHT22;32412;51.478;5.694;2022-08-19T04:36:35;16.00;99.90
46676;DHT22;32412;51.478;5.694;2022-08-19T04:39:04;16.00;99.90
46676;DHT22;32412;51.478;5.694;2022-08-19T04:41:30;15.90;99.90
46676;DHT22;32412;51.478;5.694;2022-08-19T04:44:14;15.90;99.90
46676;DHT22;32412;51.478;5.694;2022-08-19T04:46:47;15.90;99.90
46676;DHT22;32412;51.478;5.694;2022-08-19T04:49:14;15.90;99.90
46676;DHT22;32412;51.478;5.694;2022-08-19T04:51:42;15.90;99.90
46676;DHT22;32412;51.478;5.694;2022-08-19T04:54:09;16.00;99.90
46676;DHT22;32412;51.478;5.694;2022-08-19T04:56:34;15.90;99.90
46676;DHT22;32412;51.478;5.694;2022-08-19T04:59:00;15.90;99.90
46676;DHT22;32412;51.478;5.694;2022-08-19T05:01:32;16.00;99.90
46676;DHT22;32412;51.478;5.694;2022-08-19T05:03:59;16.10;99.90
46676;DHT22;32412;51.478;5.694;2022-08-19T05:06:26;16.10;99.90
46676;DHT22;32412;51.478;5.694;2022-08-19T05:08:53;16.20;99.90
46676;DHT22;32412;51.478;5.694;2022-08-19T05:11:22;16.20;99.90
46676;DHT22;32412;51.478;5.694;2022-08-19T05:13:49;16.20;99.90
46676;DHT22;32412;51.478;5.694;2022-08-19T05:16:17;16.30;99.90
46676;DHT22;32412;51.478;5.694;2022-08-19T05:18:44;16.30;99.90
46676;DHT22;32412;51.478;5.694;2022-08-19T05:21:28;16.40;99.90
46676;DHT22;32412;51.478;5.694;2022-08-19T05:24:13;16.40;99.90
46676;DHT22;32412;51.478;5.694;2022-08-19T05:26:45;16.50;99.90
46676;DHT22;32412;51.478;5.694;2022-08-19T05:29:12;16.50;99.90
46676;DHT22;32412;51.478;5.694;2022-08-19T05:31:39;16.60;99.90
46676;DHT22;32412;51.478;5.694;2022-08-19T05:34:05;16.60;99.90
46676;DHT22;32412;51.478;5.694;2022-08-19T05:36:37;16.70;99.90
46676;DHT22;32412;51.478;5.694;2022-08-19T05:39:05;16.70;99.90
46676;DHT22;32412;51.478;5.694;2022-08-19T05:41:31;16.80;99.90
46676;DHT22;32412;51.478;5.694;2022-08-19T05:43:57;16.80;99.90
46676;DHT22;32412;51.478;5.694;2022-08-19T05:46:24;16.80;99.90
46676;DHT22;32412;51.478;5.694;2022-08-19T05:48:49;16.90;99.90
46676;DHT22;32412;51.478;5.694;2022-08-19T05:51:15;16.90;99.90
46676;DHT22;32412;51.478;5.694;2022-08-19T05:53:42;17.00;99.90
46676;DHT22;32412;51.478;5.694;2022-08-19T05:56:10;17.00;99.90
46676;DHT22;32412;51.478;5.694;2022-08-19T05:58:37;17.10;99.90
46676;DHT22;32412;51.478;5.694;2022-08-19T06:01:09;17.20;99.90
46676;DHT22;32412;51.478;5.694;2022-08-19T06:03:35;17.20;99.90
46676;DHT22;32412;51.478;5.694;2022-08-19T06:06:03;17.30;99.90
46676;DHT22;32412;51.478;5.694;2022-08-19T06:08:29;17.30;99.90
46676;DHT22;32412;51.478;5.694;2022-08-19T06:10:55;17.30;99.90
46676;DHT22;32412;51.478;5.694;2022-08-19T06:13:21;17.30;99.90
46676;DHT22;32412;51.478;5.694;2022-08-19T06:15:48;17.40;99.90
46676;DHT22;32412;51.478;5.694;2022-08-19T06:18:14;17.50;99.90
46676;DHT22;32412;51.478;5.694;2022-08-19T06:20:41;17.60;99.90
46676;DHT22;32412;51.478;5.694;2022-08-19T06:23:08;17.70;99.90
46676;DHT22;32412;51.478;5.694;2022-08-19T06:25:34;17.70;99.90
46676;DHT22;32412;51.478;5.694;2022-08-19T06:28:00;17.80;99.90
46676;DHT22;32412;51.478;5.694;2022-08-19T06:30:28;17.80;99.90
46676;DHT22;32412;51.478;5.694;2022-08-19T06:32:54;17.90;99.90
46676;DHT22;32412;51.478;5.694;2022-08-19T06:35:20;17.90;99.90
46676;DHT22;32412;51.478;5.694;2022-08-19T06:37:46;18.00;99.90
46676;DHT22;32412;51.478;5.694;2022-08-19T06:40:12;18.10;99.90
46676;DHT22;32412;51.478;5.694;2022-08-19T06:42:38;18.20;99.90
46676;DHT22;32412;51.478;5.694;2022-08-19T06:45:05;18.30;99.90
46676;DHT22;32412;51.478;5.694;2022-08-19T06:47:33;18.40;99.90
46676;DHT22;32412;51.478;5.694;2022-08-19T06:50:00;18.60;99.90
46676;DHT22;32412;51.478;5.694;2022-08-19T06:52:29;18.60;99.90
46676;DHT22;32412;51.478;5.694;2022-08-19T06:54:55;18.70;99.90
46676;DHT22;32412;51.478;5.694;2022-08-19T06:57:22;18.90;99.90
46676;DHT22;32412;51.478;5.694;2022-08-19T06:59:48;19.00;99.90
46676;DHT22;32412;51.478;5.694;2022-08-19T07:02:13;19.20;99.90
46676;DHT22;32412;51.478;5.694;2022-08-19T07:04:39;19.30;99.90
46676;DHT22;32412;51.478;5.694;2022-08-19T07:07:08;19.30;99.90
46676;DHT22;32412;51.478;5.694;2022-08-19T07:09:38;19.50;99.90
46676;DHT22;32412;51.478;5.694;2022-08-19T07:12:06;19.60;99.90
46676;DHT22;32412;51.478;5.694;2022-08-19T07:14:34;19.80;99.90
46676;DHT22;32412;51.478;5.694;2022-08-19T07:17:04;19.80;99.90
46676;DHT22;32412;51.478;5.694;2022-08-19T07:19:31;19.90;99.90
46676;DHT22;32412;51.478;5.694;2022-08-19T07:21:58;20.00;99.90
46676;DHT22;32412;51.478;5.694;2022-08-19T07:24:27;20.20;99.90
46676;DHT22;32412;51.478;5.694;2022-08-19T07:26:55;20.40;99.90
46676;DHT22;32412;51.478;5.694;2022-08-19T07:29:22;20.50;99.90
46676;DHT22;32412;51.478;5.694;2022-08-19T07:31:50;20.60;99.90
46676;DHT22;32412;51.478;5.694;2022-08-19T07:34:16;20.60;99.90
46676;DHT22;32412;51.478;5.694;2022-08-19T07:36:43;20.70;99.90
46676;DHT22;32412;51.478;5.694;2022-08-19T07:39:16;20.80;99.90
46676;DHT22;32412;51.478;5.694;2022-08-19T07:41:42;20.80;99.90
46676;DHT22;32412;51.478;5.694;2022-08-19T07:44:08;20.90;99.90
46676;DHT22;32412;51.478;5.694;2022-08-19T07:46:37;21.10;99.90
46676;DHT22;32412;51.478;5.694;2022-08-19T07:49:05;21.00;99.90
46676;DHT22;32412;51.478;5.694;2022-08-19T07:51:31;21.10;99.90
46676;DHT22;32412;51.478;5.694;2022-08-19T07:53:56;21.30;99.90
46676;DHT22;32412;51.478;5.694;2022-08-19T07:56:22;21.50;99.90
46676;DHT22;32412;51.478;5.694;2022-08-19T07:58:50;21.50;99.90
46676;DHT22;32412;51.478;5.694;2022-08-19T08:01:23;21.60;99.90
46676;DHT22;32412;51.478;5.694;2022-08-19T08:03:51;21.70;99.90
46676;DHT22;32412;51.478;5.694;2022-08-19T08:06:36;21.70;99.90
46676;DHT22;32412;51.478;5.694;2022-08-19T08:09:29;21.80;99.90
46676;DHT22;32412;51.478;5.694;2022-08-19T08:11:58;21.90;99.90
46676;DHT22;32412;51.478;5.694;2022-08-19T08:14:27;22.00;99.90
46676;DHT22;32412;51.478;5.694;2022-08-19T08:16:53;22.10;99.90
46676;DHT22;32412;51.478;5.694;2022-08-19T08:19:22;22.10;99.90
46676;DHT22;32412;51.478;5.694;2022-08-19T08:21:51;22.30;99.90
46676;DHT22;32412;51.478;5.694;2022-08-19T08:24:17;22.40;99.90
46676;DHT22;32412;51.478;5.694;2022-08-19T08:26:43;22.40;99.90
46676;DHT22;32412;51.478;5.694;2022-08-19T08:29:14;22.30;99.90
46676;DHT22;32412;51.478;5.694;2022-08-19T08:31:43;22.30;99.90
46676;DHT22;32412;51.478;5.694;2022-08-19T08:34:10;22.30;99.90
46676;DHT22;32412;51.478;5.694;2022-08-19T08:36:41;22.40;99.90
46676;DHT22;32412;51.478;5.694;2022-08-19T08:39:13;22.50;99.90
46676;DHT22;32412;51.478;5.694;2022-08-19T08:44:16;23.00;99.90
46676;DHT22;32412;51.478;5.694;2022-08-19T08:46:49;23.00;99.90
46676;DHT22;32412;51.478;5.694;2022-08-19T08:49:42;23.20;99.90
46676;DHT22;32412;51.478;5.694;2022-08-19T08:52:18;23.30;99.90
46676;DHT22;32412;51.478;5.694;2022-08-19T08:54:47;23.20;99.90
46676;DHT22;32412;51.478;5.694;2022-08-19T09:00:14;23.40;99.90
46676;DHT22;32412;51.478;5.694;2022-08-19T09:02:42;23.40;99.90
46676;DHT22;32412;51.478;5.694;2022-08-19T09:05:09;23.70;99.90
46676;DHT22;32412;51.478;5.694;2022-08-19T09:10:17;23.90;99.90
46676;DHT22;32412;51.478;5.694;2022-08-19T09:13:56;23.90;99.90
46676;DHT22;32412;51.478;5.694;2022-08-19T09:16:05;24.10;99.90
46676;DHT22;32412;51.478;5.694;2022-08-19T09:18:53;24.40;99.90
46676;DHT22;32412;51.478;5.694;2022-08-19T09:21:21;24.50;99.90
46676;DHT22;32412;51.478;5.694;2022-08-19T09:23:48;24.80;99.90
46676;DHT22;32412;51.478;5.694;2022-08-19T09:26:17;24.90;99.90
46676;DHT22;32412;51.478;5.694;2022-08-19T09:28:45;24.90;99.90
46676;DHT22;32412;51.478;5.694;2022-08-19T09:31:12;25.20;99.90
46676;DHT22;32412;51.478;5.694;2022-08-19T09:33:39;25.60;99.90
46676;DHT22;32412;51.478;5.694;2022-08-19T09:36:06;25.80;99.90
46676;DHT22;32412;51.478;5.694;2022-08-19T09:38:33;26.10;99.90
46676;DHT22;32412;51.478;5.694;2022-08-19T09:41:04;26.20;99.90
46676;DHT22;32412;51.478;5.694;2022-08-19T09:43:31;26.60;99.90
46676;DHT22;32412;51.478;5.694;2022-08-19T09:45:56;27.10;99.90
46676;DHT22;32412;51.478;5.694;2022-08-19T09:48:22;26.50;99.90
46676;DHT22;32412;51.478;5.694;2022-08-19T09:50:48;25.50;99.90
46676;DHT22;32412;51.478;5.694;2022-08-19T09:53:20;25.40;99.90
46676;DHT22;32412;51.478;5.694;2022-08-19T09:55:48;25.50;99.90
46676;DHT22;32412;51.478;5.694;2022-08-19T09:58:13;26.00;99.90
46676;DHT22;32412;51.478;5.694;2022-08-19T10:00:39;26.60;99.90
46676;DHT22;32412;51.478;5.694;2022-08-19T10:03:05;26.60;99.90
46676;DHT22;32412;51.478;5.694;2022-08-19T10:05:30;26.60;99.90
46676;DHT22;32412;51.478;5.694;2022-08-19T10:08:27;27.70;99.90
46676;DHT22;32412;51.478;5.694;2022-08-19T10:10:54;28.90;99.90
46676;DHT22;32412;51.478;5.694;2022-08-19T10:13:21;29.20;99.90
46676;DHT22;32412;51.478;5.694;2022-08-19T10:15:49;28.40;99.90
46676;DHT22;32412;51.478;5.694;2022-08-19T10:18:19;27.30;99.90
46676;DHT22;32412;51.478;5.694;2022-08-19T10:20:47;26.70;99.90
46676;DHT22;32412;51.478;5.694;2022-08-19T10:23:13;25.70;99.90
46676;DHT22;32412;51.478;5.694;2022-08-19T10:25:40;25.50;99.90
46676;DHT22;32412;51.478;5.694;2022-08-19T10:28:06;25.40;99.90
46676;DHT22;32412;51.478;5.694;2022-08-19T10:30:33;25.80;99.90
46676;DHT22;32412;51.478;5.694;2022-08-19T10:33:00;25.90;99.90
46676;DHT22;32412;51.478;5.694;2022-08-19T10:35:26;25.80;99.90
46676;DHT22;32412;51.478;5.694;2022-08-19T10:37:53;25.80;99.90
46676;DHT22;32412;51.478;5.694;2022-08-19T10:40:19;25.60;99.90
46676;DHT22;32412;51.478;5.694;2022-08-19T10:42:45;25.40;99.90
46676;DHT22;32412;51.478;5.694;2022-08-19T10:45:10;25.20;99.90
46676;DHT22;32412;51.478;5.694;2022-08-19T10:47:36;25.20;99.90
46676;DHT22;32412;51.478;5.694;2022-08-19T10:50:03;25.60;99.90
46676;DHT22;32412;51.478;5.694;2022-08-19T10:52:50;25.40;99.90
46676;DHT22;32412;51.478;5.694;2022-08-19T10:55:18;25.30;99.90
46676;DHT22;32412;51.478;5.694;2022-08-19T10:58:10;25.10;99.90
46676;DHT22;32412;51.478;5.694;2022-08-19T11:00:36;25.20;99.90
46676;DHT22;32412;51.478;5.694;2022-08-19T11:03:02;26.70;99.90
46676;DHT22;32412;51.478;5.694;2022-08-19T11:05:27;27.80;99.90
46676;DHT22;32412;51.478;5.694;2022-08-19T11:07:53;28.90;99.90
46676;DHT22;32412;51.478;5.694;2022-08-19T11:10:19;29.30;99.90
46676;DHT22;32412;51.478;5.694;2022-08-19T11:12:45;29.70;99.90
46676;DHT22;32412;51.478;5.694;2022-08-19T11:15:11;29.50;99.90
46676;DHT22;32412;51.478;5.694;2022-08-19T11:17:38;30.00;99.90
46676;DHT22;32412;51.478;5.694;2022-08-19T11:20:10;30.40;99.90
46676;DHT22;32412;51.478;5.694;2022-08-19T11:22:37;29.20;99.90
46676;DHT22;32412;51.478;5.694;2022-08-19T11:25:03;28.70;99.90
46676;DHT22;32412;51.478;5.694;2022-08-19T11:27:29;28.40;99.90
46676;DHT22;32412;51.478;5.694;2022-08-19T11:29:55;28.80;99.90
46676;DHT22;32412;51.478;5.694;2022-08-19T11:32:21;29.30;99.90
46676;DHT22;32412;51.478;5.694;2022-08-19T11:34:47;30.20;99.90
46676;DHT22;32412;51.478;5.694;2022-08-19T11:37:12;29.60;99.90
46676;DHT22;32412;51.478;5.694;2022-08-19T11:39:38;28.90;99.90
46676;DHT22;32412;51.478;5.694;2022-08-19T11:42:05;27.90;99.90
46676;DHT22;32412;51.478;5.694;2022-08-19T11:44:52;29.20;99.90
46676;DHT22;32412;51.478;5.694;2022-08-19T11:47:18;31.00;99.90
46676;DHT22;32412;51.478;5.694;2022-08-19T11:49:47;30.80;99.70
46676;DHT22;32412;51.478;5.694;2022-08-19T11:52:13;32.00;99.10
46676;DHT22;32412;51.478;5.694;2022-08-19T11:54:38;32.00;98.30
46676;DHT22;32412;51.478;5.694;2022-08-19T11:57:07;31.90;98.40
46676;DHT22;32412;51.478;5.694;2022-08-19T11:59:32;30.50;98.50
46676;DHT22;32412;51.478;5.694;2022-08-19T12:01:58;29.30;99.60
46676;DHT22;32412;51.478;5.694;2022-08-19T12:04:24;28.40;99.90
46676;DHT22;32412;51.478;5.694;2022-08-19T12:06:50;27.80;99.90
46676;DHT22;32412;51.478;5.694;2022-08-19T12:09:16;28.20;99.90
46676;DHT22;32412;51.478;5.694;2022-08-19T12:11:43;29.60;99.90
46676;DHT22;32412;51.478;5.694;2022-08-19T12:14:11;31.30;98.50
46676;DHT22;32412;51.478;5.694;2022-08-19T12:16:38;32.00;97.50
46676;DHT22;32412;51.478;5.694;2022-08-19T12:19:05;32.20;97.00
46676;DHT22;32412;51.478;5.694;2022-08-19T12:21:34;32.40;96.90
46676;DHT22;32412;51.478;5.694;2022-08-19T12:24:02;32.30;96.60
46676;DHT22;32412;51.478;5.694;2022-08-19T12:26:29;32.70;96.50
46676;DHT22;32412;51.478;5.694;2022-08-19T12:29:00;33.20;96.20
46676;DHT22;32412;51.478;5.694;2022-08-19T12:31:27;32.50;95.90
46676;DHT22;32412;51.478;5.694;2022-08-19T12:33:58;32.40;96.40
46676;DHT22;32412;51.478;5.694;2022-08-19T12:36:24;33.00;96.20
46676;DHT22;32412;51.478;5.694;2022-08-19T12:38:51;32.70;96.40
46676;DHT22;32412;51.478;5.694;2022-08-19T12:41:18;31.70;97.10
46676;DHT22;32412;51.478;5.694;2022-08-19T12:43:45;32.20;97.00
46676;DHT22;32412;51.478;5.694;2022-08-19T12:46:11;32.50;97.00
46676;DHT22;32412;51.478;5.694;2022-08-19T12:48:38;33.10;96.40
46676;DHT22;32412;51.478;5.694;2022-08-19T12:51:09;33.70;96.20
46676;DHT22;32412;51.478;5.694;2022-08-19T12:53:36;33.20;95.70
46676;DHT22;32412;51.478;5.694;2022-08-19T12:56:02;31.70;96.90
46676;DHT22;32412;51.478;5.694;2022-08-19T12:58:28;31.00;97.80
46676;DHT22;32412;51.478;5.694;2022-08-19T13:00:54;30.50;98.20
46676;DHT22;32412;51.478;5.694;2022-08-19T13:03:20;29.30;99.10
46676;DHT22;32412;51.478;5.694;2022-08-19T13:05:47;28.60;99.90
46676;DHT22;32412;51.478;5.694;2022-08-19T13:08:15;27.90;99.90
46676;DHT22;32412;51.478;5.694;2022-08-19T13:10:42;27.60;99.90
46676;DHT22;32412;51.478;5.694;2022-08-19T13:13:09;26.90;99.90
46676;DHT22;32412;51.478;5.694;2022-08-19T13:15:37;26.70;99.90
46676;DHT22;32412;51.478;5.694;2022-08-19T13:18:04;27.20;99.90
46676;DHT22;32412;51.478;5.694;2022-08-19T13:20:30;27.50;99.90
46676;DHT22;32412;51.478;5.694;2022-08-19T13:22:56;27.60;99.90
46676;DHT22;32412;51.478;5.694;2022-08-19T13:25:23;27.50;99.90
46676;DHT22;32412;51.478;5.694;2022-08-19T13:27:49;27.20;99.90
46676;DHT22;32412;51.478;5.694;2022-08-19T13:30:17;27.00;99.90
46676;DHT22;32412;51.478;5.694;2022-08-19T13:33:02;26.90;99.90
46676;DHT22;32412;51.478;5.694;2022-08-19T13:35:51;26.90;99.90
46676;DHT22;32412;51.478;5.694;2022-08-19T13:38:23;27.10;99.90
46676;DHT22;32412;51.478;5.694;2022-08-19T13:40:50;27.30;99.90
46676;DHT22;32412;51.478;5.694;2022-08-19T13:43:18;27.20;99.90
46676;DHT22;32412;51.478;5.694;2022-08-19T13:45:45;27.00;99.90
46676;DHT22;32412;51.478;5.694;2022-08-19T13:48:11;27.00;99.90
46676;DHT22;32412;51.478;5.694;2022-08-19T13:50:42;27.00;99.90
46676;DHT22;32412;51.478;5.694;2022-08-19T13:53:10;27.00;99.90
46676;DHT22;32412;51.478;5.694;2022-08-19T13:55:38;26.90;99.90
46676;DHT22;32412;51.478;5.694;2022-08-19T13:58:04;27.00;99.90
46676;DHT22;32412;51.478;5.694;2022-08-19T14:00:33;26.80;99.90
46676;DHT22;32412;51.478;5.694;2022-08-19T14:02:59;26.80;99.90
46676;DHT22;32412;51.478;5.694;2022-08-19T14:05:26;27.00;99.90
46676;DHT22;32412;51.478;5.694;2022-08-19T14:07:52;26.70;99.90
46676;DHT22;32412;51.478;5.694;2022-08-19T14:10:19;26.90;99.90
46676;DHT22;32412;51.478;5.694;2022-08-19T14:12:45;26.80;99.90
46676;DHT22;32412;51.478;5.694;2022-08-19T14:15:12;26.60;99.90
46676;DHT22;32412;51.478;5.694;2022-08-19T14:17:42;26.60;99.90
46676;DHT22;32412;51.478;5.694;2022-08-19T14:20:10;26.50;99.90
46676;DHT22;32412;51.478;5.694;2022-08-19T14:22:38;26.50;99.90
46676;DHT22;32412;51.478;5.694;2022-08-19T14:25:07;26.20;99.90
46676;DHT22;32412;51.478;5.694;2022-08-19T14:27:34;26.30;99.90
46676;DHT22;32412;51.478;5.694;2022-08-19T14:30:00;26.10;99.90
46676;DHT22;32412;51.478;5.694;2022-08-19T14:32:27;26.20;99.90
46676;DHT22;32412;51.478;5.694;2022-08-19T14:34:53;26.50;99.90
46676;DHT22;32412;51.478;5.694;2022-08-19T14:37:20;26.60;99.90
46676;DHT22;32412;51.478;5.694;2022-08-19T14:39:48;26.60;99.90
46676;DHT22;32412;51.478;5.694;2022-08-19T14:42:13;26.80;99.90
46676;DHT22;32412;51.478;5.694;2022-08-19T14:44:40;26.90;99.90
46676;DHT22;32412;51.478;5.694;2022-08-19T14:47:06;26.70;99.90
46676;DHT22;32412;51.478;5.694;2022-08-19T14:49:33;26.50;99.90
46676;DHT22;32412;51.478;5.694;2022-08-19T14:51:59;26.40;99.90
46676;DHT22;32412;51.478;5.694;2022-08-19T14:54:24;26.40;99.90
46676;DHT22;32412;51.478;5.694;2022-08-19T14:56:50;26.10;99.90
46676;DHT22;32412;51.478;5.694;2022-08-19T14:59:16;26.00;99.90
46676;DHT22;32412;51.478;5.694;2022-08-19T15:01:42;25.90;99.90
46676;DHT22;32412;51.478;5.694;2022-08-19T15:04:08;25.70;99.90
46676;DHT22;32412;51.478;5.694;2022-08-19T15:06:34;25.70;99.90
46676;DHT22;32412;51.478;5.694;2022-08-19T15:09:00;25.70;99.90
46676;DHT22;32412;51.478;5.694;2022-08-19T15:11:27;25.80;99.90
46676;DHT22;32412;51.478;5.694;2022-08-19T15:13:56;25.80;99.90
46676;DHT22;32412;51.478;5.694;2022-08-19T15:16:32;25.90;99.90
46676;DHT22;32412;51.478;5.694;2022-08-19T15:18:58;25.90;99.90
46676;DHT22;32412;51.478;5.694;2022-08-19T15:21:26;25.90;99.90
46676;DHT22;32412;51.478;5.694;2022-08-19T15:23:56;25.90;99.90
46676;DHT22;32412;51.478;5.694;2022-08-19T15:26:22;26.00;99.90
46676;DHT22;32412;51.478;5.694;2022-08-19T15:28:48;25.80;99.90
46676;DHT22;32412;51.478;5.694;2022-08-19T15:31:17;25.90;99.90
46676;DHT22;32412;51.478;5.694;2022-08-19T15:33:43;26.00;99.90
46676;DHT22;32412;51.478;5.694;2022-08-19T15:36:10;25.90;99.90
46676;DHT22;32412;51.478;5.694;2022-08-19T15:38:37;25.90;99.90
46676;DHT22;32412;51.478;5.694;2022-08-19T15:41:16;26.00;99.90
46676;DHT22;32412;51.478;5.694;2022-08-19T15:43:51;26.10;99.90